sensor_id;sensor_type;location;lat;lon;timestamp;pressure;altitude;pressure_sealevel;temperature;humidity
43691;BME280;29293;52.190;21.226;2023-01-15T00:07:56;99824.53;;;2.93;100.00
43691;BME280;29293;52.190;21.226;2023-01-15T00:23:14;99789.59;;;3.01;100.00
43691;BME280;29293;52.190;21.226;2023-01-15T00:38:52;99758.92;;;3.02;100.00
43691;BME280;29293;52.190;21.226;2023-01-15T00:54:10;99732.25;;;2.96;100.00
43691;BME280;29293;52.190;21.226;2023-01-15T01:09:19;99713.02;;;2.90;100.00
43691;BME280;29293;52.190;21.226;2023-01-15T01:24:26;99695.59;;;2.83;100.00
43691;BME280;29293;52.190;21.226;2023-01-15T01:39:34;99683.70;;;2.75;100.00
43691;BME280;29293;52.190;21.226;2023-01-15T01:54:47;99676.09;;;2.70;100.00
43691;BME280;29293;52.190;21.226;2023-01-15T02:09:59;99656.67;;;2.60;100.00
43691;BME280;29293;52.190;21.226;2023-01-15T02:25:17;99607.44;;;2.43;100.00
43691;BME280;29293;52.190;21.226;2023-01-15T02:40:29;99608.20;;;2.32;100.00
43691;BME280;29293;52.190;21.226;2023-01-15T02:55:42;99609.15;;;2.29;100.00
43691;BME280;29293;52.190;21.226;2023-01-15T03:11:00;99573.81;;;2.27;100.00
43691;BME280;29293;52.190;21.226;2023-01-15T03:26:12;99527.11;;;2.19;100.00
43691;BME280;29293;52.190;21.226;2023-01-15T03:41:28;99508.89;;;2.30;100.00
43691;BME280;29293;52.190;21.226;2023-01-15T03:56:48;99490.34;;;2.49;100.00
43691;BME280;29293;52.190;21.226;2023-01-15T04:12:02;99466.88;;;2.57;100.00
43691;BME280;29293;52.190;21.226;2023-01-15T04:27:14;99442.27;;;2.66;100.00
43691;BME280;29293;52.190;21.226;2023-01-15T04:42:26;99426.23;;;2.69;100.00
43691;BME280;29293;52.190;21.226;2023-01-15T04:57:55;99387.52;;;2.76;100.00
43691;BME280;29293;52.190;21.226;2023-01-15T05:13:07;99369.73;;;2.77;100.00
43691;BME280;29293;52.190;21.226;2023-01-15T05:28:17;99352.14;;;2.78;100.00
43691;BME280;29293;52.190;21.226;2023-01-15T05:43:27;99344.29;;;2.76;100.00
43691;BME280;29293;52.190;21.226;2023-01-15T05:58:40;99344.66;;;2.87;100.00
43691;BME280;29293;52.190;21.226;2023-01-15T06:13:52;99333.98;;;3.08;100.00
43691;BME280;29293;52.190;21.226;2023-01-15T06:29:04;99302.40;;;3.20;100.00
43691;BME280;29293;52.190;21.226;2023-01-15T06:44:16;99285.92;;;3.29;100.00
43691;BME280;29293;52.190;21.226;2023-01-15T06:59:43;99288.86;;;3.33;100.00
43691;BME280;29293;52.190;21.226;2023-01-15T07:14:55;99262.64;;;3.38;100.00
43691;BME280;29293;52.190;21.226;2023-01-15T07:30:06;99261.36;;;3.36;100.00
43691;BME280;29293;52.190;21.226;2023-01-15T07:45:17;99261.91;;;3.27;100.00
43691;BME280;29293;52.190;21.226;2023-01-15T08:00:44;99243.70;;;3.13;100.00
43691;BME280;29293;52.190;21.226;2023-01-15T08:15:57;99233.52;;;3.10;100.00
43691;BME280;29293;52.190;21.226;2023-01-15T08:31:10;99227.21;;;3.22;100.00
43691;BME280;29293;52.190;21.226;2023-01-15T08:46:19;99218.05;;;3.44;100.00
43691;BME280;29293;52.190;21.226;2023-01-15T09:01:36;99210.63;;;3.74;100.00
43691;BME280;29293;52.190;21.226;2023-01-15T09:16:48;99203.99;;;3.98;100.00
43691;BME280;29293;52.190;21.226;2023-01-15T09:31:58;99196.73;;;4.09;100.00
43691;BME280;29293;52.190;21.226;2023-01-15T09:47:13;99183.84;;;3.99;100.00
43691;BME280;29293;52.190;21.226;2023-01-15T10:02:34;99176.65;;;3.86;100.00
43691;BME280;29293;52.190;21.226;2023-01-15T10:17:50;99155.71;;;3.77;100.00
43691;BME280;29293;52.190;21.226;2023-01-15T10:33:13;99144.41;;;3.75;100.00
43691;BME280;29293;52.190;21.226;2023-01-15T10:48:29;99129.55;;;3.77;100.00
43691;BME280;29293;52.190;21.226;2023-01-15T11:03:43;99110.49;;;3.80;100.00
43691;BME280;29293;52.190;21.226;2023-01-15T11:18:52;99104.44;;;3.83;100.00
43691;BME280;29293;52.190;21.226;2023-01-15T11:34:21;99086.48;;;3.83;100.00
43691;BME280;29293;52.190;21.226;2023-01-15T11:49:31;99072.09;;;3.81;100.00
43691;BME280;29293;52.190;21.226;2023-01-15T12:04:57;99060.05;;;3.83;100.00
43691;BME280;29293;52.190;21.226;2023-01-15T12:20:17;99046.88;;;3.87;100.00
43691;BME280;29293;52.190;21.226;2023-01-15T12:35:32;99041.67;;;3.93;100.00
43691;BME280;29293;52.190;21.226;2023-01-15T12:50:45;99046.07;;;3.96;100.00
43691;BME280;29293;52.190;21.226;2023-01-15T13:05:57;99050.48;;;3.99;100.00
43691;BME280;29293;52.190;21.226;2023-01-15T13:21:13;99055.48;;;4.04;100.00
43691;BME280;29293;52.190;21.226;2023-01-15T13:36:27;99050.27;;;4.10;100.00
43691;BME280;29293;52.190;21.226;2023-01-15T13:51:40;99046.19;;;4.18;100.00
43691;BME280;29293;52.190;21.226;2023-01-15T14:06:52;99053.20;;;4.24;100.00
43691;BME280;29293;52.190;21.226;2023-01-15T14:22:13;99056.25;;;4.29;100.00
43691;BME280;29293;52.190;21.226;2023-01-15T14:37:32;99067.90;;;4.34;100.00
43691;BME280;29293;52.190;21.226;2023-01-15T14:52:46;99076.06;;;4.38;100.00
43691;BME280;29293;52.190;21.226;2023-01-15T15:07:57;99073.34;;;4.40;100.00
43691;BME280;29293;52.190;21.226;2023-01-15T15:23:14;99071.67;;;4.42;100.00
43691;BME280;29293;52.190;21.226;2023-01-15T15:38:29;99058.46;;;4.39;100.00
43691;BME280;29293;52.190;21.226;2023-01-15T15:53:39;99050.30;;;4.36;100.00
43691;BME280;29293;52.190;21.226;2023-01-15T16:08:57;99050.71;;;4.43;100.00
43691;BME280;29293;52.190;21.226;2023-01-15T16:24:24;99054.11;;;4.44;100.00
43691;BME280;29293;52.190;21.226;2023-01-15T16:39:42;99071.39;;;4.50;100.00
43691;BME280;29293;52.190;21.226;2023-01-15T16:54:54;99072.31;;;4.48;100.00
43691;BME280;29293;52.190;21.226;2023-01-15T17:10:16;99097.59;;;4.38;100.00
43691;BME280;29293;52.190;21.226;2023-01-15T17:25:36;99111.05;;;4.30;100.00
43691;BME280;29293;52.190;21.226;2023-01-15T17:40:46;99127.78;;;4.27;100.00
43691;BME280;29293;52.190;21.226;2023-01-15T17:55:56;99141.88;;;4.31;100.00
43691;BME280;29293;52.190;21.226;2023-01-15T18:11:23;99167.87;;;4.36;100.00
43691;BME280;29293;52.190;21.226;2023-01-15T18:26:53;99192.27;;;4.40;100.00
43691;BME280;29293;52.190;21.226;2023-01-15T18:42:03;99198.88;;;4.44;100.00
43691;BME280;29293;52.190;21.226;2023-01-15T18:57:34;99200.29;;;4.46;100.00
43691;BME280;29293;52.190;21.226;2023-01-15T19:12:47;99213.02;;;4.47;100.00
43691;BME280;29293;52.190;21.226;2023-01-15T19:27:58;99230.28;;;4.50;100.00
43691;BME280;29293;52.190;21.226;2023-01-15T19:43:10;99235.36;;;4.47;100.00
43691;BME280;29293;52.190;21.226;2023-01-15T19:58:36;99236.69;;;4.42;100.00
43691;BME280;29293;52.190;21.226;2023-01-15T20:13:46;99255.59;;;4.28;100.00
43691;BME280;29293;52.190;21.226;2023-01-15T20:29:02;99271.21;;;4.09;100.00
43691;BME280;29293;52.190;21.226;2023-01-15T20:44:14;99269.66;;;4.00;100.00
43691;BME280;29293;52.190;21.226;2023-01-15T20:59:41;99272.27;;;3.90;100.00
43691;BME280;29293;52.190;21.226;2023-01-15T21:14:50;99273.45;;;3.86;100.00
43691;BME280;29293;52.190;21.226;2023-01-15T21:30:01;99279.59;;;3.85;100.00
43691;BME280;29293;52.190;21.226;2023-01-15T21:45:12;99279.02;;;3.84;100.00
43691;BME280;29293;52.190;21.226;2023-01-15T22:00:22;99277.66;;;3.81;100.00
43691;BME280;29293;52.190;21.226;2023-01-15T22:15:32;99286.92;;;3.75;100.00
43691;BME280;29293;52.190;21.226;2023-01-15T22:30:42;99287.69;;;3.69;100.00
43691;BME280;29293;52.190;21.226;2023-01-15T22:45:52;99289.73;;;3.63;100.00
43691;BME280;29293;52.190;21.226;2023-01-15T23:01:04;99290.64;;;3.58;100.00
43691;BME280;29293;52.190;21.226;2023-01-15T23:16:15;99290.02;;;3.50;100.00
43691;BME280;29293;52.190;21.226;2023-01-15T23:31:25;99275.40;;;3.41;100.00
43691;BME280;29293;52.190;21.226;2023-01-15T23:46:34;99280.08;;;3.37;100.00
